sensor_id;sensor_type;location;lat;lon;timestamp;P1;durP1;ratioP1;P2;durP2;ratioP2
36191;SDS011;22233;42.708;23.360;2022-11-18T00:02:01;33.47;;;18.75;;
36191;SDS011;22233;42.708;23.360;2022-11-18T00:04:26;35.15;;;19.48;;
36191;SDS011;22233;42.708;23.360;2022-11-18T00:06:52;32.67;;;20.42;;
36191;SDS011;22233;42.708;23.360;2022-11-18T00:09:17;33.25;;;19.13;;
36191;SDS011;22233;42.708;23.360;2022-11-18T00:11:42;33.42;;;19.27;;
36191;SDS011;22233;42.708;23.360;2022-11-18T00:14:26;30.58;;;17.63;;
36191;SDS011;22233;42.708;23.360;2022-11-18T00:16:58;29.92;;;16.25;;
36191;SDS011;22233;42.708;23.360;2022-11-18T00:19:27;26.25;;;15.40;;
36191;SDS011;22233;42.708;23.360;2022-11-18T00:21:54;27.85;;;15.68;;
36191;SDS011;22233;42.708;23.360;2022-11-18T00:24:20;27.98;;;15.20;;
36191;SDS011;22233;42.708;23.360;2022-11-18T00:26:46;28.50;;;16.63;;
36191;SDS011;22233;42.708;23.360;2022-11-18T00:29:12;21.05;;;14.40;;
36191;SDS011;22233;42.708;23.360;2022-11-18T00:31:37;21.50;;;13.02;;
36191;SDS011;22233;42.708;23.360;2022-11-18T00:34:03;24.70;;;13.23;;
36191;SDS011;22233;42.708;23.360;2022-11-18T00:36:29;17.48;;;10.75;;
36191;SDS011;22233;42.708;23.360;2022-11-18T00:38:55;20.65;;;12.23;;
36191;SDS011;22233;42.708;23.360;2022-11-18T00:41:20;19.10;;;11.18;;
36191;SDS011;22233;42.708;23.360;2022-11-18T00:43:45;16.45;;;9.98;;
36191;SDS011;22233;42.708;23.360;2022-11-18T00:46:11;16.27;;;10.60;;
36191;SDS011;22233;42.708;23.360;2022-11-18T00:48:38;16.58;;;9.75;;
36191;SDS011;22233;42.708;23.360;2022-11-18T00:53:37;14.90;;;9.43;;
36191;SDS011;22233;42.708;23.360;2022-11-18T00:56:03;18.20;;;10.32;;
36191;SDS011;22233;42.708;23.360;2022-11-18T00:58:28;15.07;;;9.30;;
36191;SDS011;22233;42.708;23.360;2022-11-18T01:00:55;16.15;;;10.05;;
36191;SDS011;22233;42.708;23.360;2022-11-18T01:03:21;18.65;;;10.40;;
36191;SDS011;22233;42.708;23.360;2022-11-18T01:05:46;20.52;;;11.20;;
36191;SDS011;22233;42.708;23.360;2022-11-18T01:08:12;16.05;;;9.75;;
36191;SDS011;22233;42.708;23.360;2022-11-18T01:10:38;18.50;;;10.75;;
36191;SDS011;22233;42.708;23.360;2022-11-18T01:13:05;17.08;;;9.45;;
36191;SDS011;22233;42.708;23.360;2022-11-18T01:15:53;19.23;;;8.35;;
36191;SDS011;22233;42.708;23.360;2022-11-18T01:18:22;17.67;;;9.20;;
36191;SDS011;22233;42.708;23.360;2022-11-18T01:20:52;13.10;;;7.93;;
36191;SDS011;22233;42.708;23.360;2022-11-18T01:23:19;14.00;;;8.50;;
36191;SDS011;22233;42.708;23.360;2022-11-18T01:25:45;14.73;;;8.20;;
36191;SDS011;22233;42.708;23.360;2022-11-18T01:28:12;18.05;;;7.53;;
36191;SDS011;22233;42.708;23.360;2022-11-18T01:30:38;17.75;;;7.97;;
36191;SDS011;22233;42.708;23.360;2022-11-18T01:33:05;15.93;;;8.75;;
36191;SDS011;22233;42.708;23.360;2022-11-18T01:35:34;17.45;;;8.32;;
36191;SDS011;22233;42.708;23.360;2022-11-18T01:38:01;13.35;;;7.95;;
36191;SDS011;22233;42.708;23.360;2022-11-18T01:40:27;14.68;;;7.70;;
36191;SDS011;22233;42.708;23.360;2022-11-18T01:42:53;13.32;;;8.00;;
36191;SDS011;22233;42.708;23.360;2022-11-18T01:45:36;14.55;;;6.68;;
36191;SDS011;22233;42.708;23.360;2022-11-18T01:50:34;12.55;;;7.70;;
36191;SDS011;22233;42.708;23.360;2022-11-18T01:53:04;11.65;;;7.43;;
36191;SDS011;22233;42.708;23.360;2022-11-18T01:55:34;10.27;;;6.03;;
36191;SDS011;22233;42.708;23.360;2022-11-18T01:58:05;11.95;;;6.85;;
36191;SDS011;22233;42.708;23.360;2022-11-18T02:00:34;8.80;;;6.10;;
36191;SDS011;22233;42.708;23.360;2022-11-18T02:03:00;11.73;;;6.82;;
36191;SDS011;22233;42.708;23.360;2022-11-18T02:05:27;9.95;;;6.60;;
36191;SDS011;22233;42.708;23.360;2022-11-18T02:07:53;13.15;;;7.22;;
36191;SDS011;22233;42.708;23.360;2022-11-18T02:10:20;10.82;;;5.82;;
36191;SDS011;22233;42.708;23.360;2022-11-18T02:12:48;11.15;;;6.38;;
36191;SDS011;22233;42.708;23.360;2022-11-18T02:15:15;15.48;;;8.70;;
36191;SDS011;22233;42.708;23.360;2022-11-18T02:17:47;12.13;;;8.93;;
36191;SDS011;22233;42.708;23.360;2022-11-18T02:20:21;18.25;;;9.07;;
36191;SDS011;22233;42.708;23.360;2022-11-18T02:23:11;16.27;;;9.40;;
36191;SDS011;22233;42.708;23.360;2022-11-18T02:34:21;14.77;;;8.15;;
36191;SDS011;22233;42.708;23.360;2022-11-18T02:36:59;17.98;;;7.93;;
36191;SDS011;22233;42.708;23.360;2022-11-18T02:39:35;13.50;;;8.00;;
36191;SDS011;22233;42.708;23.360;2022-11-18T02:42:07;15.50;;;7.88;;
36191;SDS011;22233;42.708;23.360;2022-11-18T02:44:38;17.98;;;8.43;;
36191;SDS011;22233;42.708;23.360;2022-11-18T02:47:07;14.85;;;8.05;;
36191;SDS011;22233;42.708;23.360;2022-11-18T02:49:38;16.33;;;10.13;;
36191;SDS011;22233;42.708;23.360;2022-11-18T02:52:07;14.40;;;7.55;;
36191;SDS011;22233;42.708;23.360;2022-11-18T02:54:36;15.80;;;7.60;;
36191;SDS011;22233;42.708;23.360;2022-11-18T02:57:05;13.32;;;8.02;;
36191;SDS011;22233;42.708;23.360;2022-11-18T02:59:32;16.27;;;6.93;;
36191;SDS011;22233;42.708;23.360;2022-11-18T03:01:57;14.57;;;7.30;;
36191;SDS011;22233;42.708;23.360;2022-11-18T03:04:23;14.52;;;7.95;;
36191;SDS011;22233;42.708;23.360;2022-11-18T03:06:55;16.33;;;9.07;;
36191;SDS011;22233;42.708;23.360;2022-11-18T03:09:29;15.68;;;7.60;;
36191;SDS011;22233;42.708;23.360;2022-11-18T03:17:44;16.10;;;8.40;;
36191;SDS011;22233;42.708;23.360;2022-11-18T03:20:18;20.08;;;10.52;;
36191;SDS011;22233;42.708;23.360;2022-11-18T03:22:48;20.30;;;9.95;;
36191;SDS011;22233;42.708;23.360;2022-11-18T03:25:35;17.02;;;9.48;;
36191;SDS011;22233;42.708;23.360;2022-11-18T03:30:45;14.93;;;7.88;;
36191;SDS011;22233;42.708;23.360;2022-11-18T03:33:18;11.07;;;6.80;;
36191;SDS011;22233;42.708;23.360;2022-11-18T03:35:48;15.63;;;8.25;;
36191;SDS011;22233;42.708;23.360;2022-11-18T03:38:19;14.10;;;8.65;;
36191;SDS011;22233;42.708;23.360;2022-11-18T03:40:53;17.58;;;8.15;;
36191;SDS011;22233;42.708;23.360;2022-11-18T03:43:25;16.98;;;8.52;;
36191;SDS011;22233;42.708;23.360;2022-11-18T03:45:55;15.40;;;8.48;;
36191;SDS011;22233;42.708;23.360;2022-11-18T03:48:30;19.55;;;9.30;;
36191;SDS011;22233;42.708;23.360;2022-11-18T03:51:01;19.98;;;11.48;;
36191;SDS011;22233;42.708;23.360;2022-11-18T03:53:35;18.50;;;9.82;;
36191;SDS011;22233;42.708;23.360;2022-11-18T03:56:05;16.27;;;8.85;;
36191;SDS011;22233;42.708;23.360;2022-11-18T03:58:42;16.17;;;9.65;;
36191;SDS011;22233;42.708;23.360;2022-11-18T04:01:17;15.25;;;8.77;;
36191;SDS011;22233;42.708;23.360;2022-11-18T04:03:47;17.60;;;8.93;;
36191;SDS011;22233;42.708;23.360;2022-11-18T04:06:30;15.82;;;8.68;;
36191;SDS011;22233;42.708;23.360;2022-11-18T04:09:02;15.32;;;8.25;;
36191;SDS011;22233;42.708;23.360;2022-11-18T04:11:34;19.27;;;8.93;;
36191;SDS011;22233;42.708;23.360;2022-11-18T04:14:26;19.17;;;8.90;;
36191;SDS011;22233;42.708;23.360;2022-11-18T04:16:56;20.10;;;10.25;;
36191;SDS011;22233;42.708;23.360;2022-11-18T04:19:22;20.20;;;9.32;;
36191;SDS011;22233;42.708;23.360;2022-11-18T04:21:47;20.27;;;9.73;;
36191;SDS011;22233;42.708;23.360;2022-11-18T04:24:13;14.52;;;9.93;;
36191;SDS011;22233;42.708;23.360;2022-11-18T04:26:39;15.50;;;8.93;;
36191;SDS011;22233;42.708;23.360;2022-11-18T04:29:04;16.42;;;8.73;;
36191;SDS011;22233;42.708;23.360;2022-11-18T04:31:30;18.63;;;8.15;;
36191;SDS011;22233;42.708;23.360;2022-11-18T04:33:55;12.98;;;8.05;;
36191;SDS011;22233;42.708;23.360;2022-11-18T04:36:20;12.57;;;6.32;;
36191;SDS011;22233;42.708;23.360;2022-11-18T04:38:46;10.23;;;5.90;;
36191;SDS011;22233;42.708;23.360;2022-11-18T04:41:11;7.53;;;4.22;;
36191;SDS011;22233;42.708;23.360;2022-11-18T04:43:37;5.93;;;3.58;;
36191;SDS011;22233;42.708;23.360;2022-11-18T04:46:02;6.47;;;3.85;;
36191;SDS011;22233;42.708;23.360;2022-11-18T04:48:28;6.40;;;3.95;;
36191;SDS011;22233;42.708;23.360;2022-11-18T04:50:55;9.45;;;3.80;;
36191;SDS011;22233;42.708;23.360;2022-11-18T04:53:21;6.50;;;3.28;;
36191;SDS011;22233;42.708;23.360;2022-11-18T04:55:47;7.15;;;3.60;;
36191;SDS011;22233;42.708;23.360;2022-11-18T04:58:12;5.22;;;3.00;;
36191;SDS011;22233;42.708;23.360;2022-11-18T05:00:38;5.63;;;3.83;;
36191;SDS011;22233;42.708;23.360;2022-11-18T05:03:03;7.10;;;3.90;;
36191;SDS011;22233;42.708;23.360;2022-11-18T05:05:28;5.82;;;3.30;;
36191;SDS011;22233;42.708;23.360;2022-11-18T05:07:54;4.85;;;3.15;;
36191;SDS011;22233;42.708;23.360;2022-11-18T05:10:19;6.72;;;3.70;;
36191;SDS011;22233;42.708;23.360;2022-11-18T05:12:45;5.65;;;3.75;;
36191;SDS011;22233;42.708;23.360;2022-11-18T05:15:13;8.13;;;3.40;;
36191;SDS011;22233;42.708;23.360;2022-11-18T05:17:40;8.93;;;3.72;;
36191;SDS011;22233;42.708;23.360;2022-11-18T05:20:06;3.75;;;3.15;;
36191;SDS011;22233;42.708;23.360;2022-11-18T05:22:32;6.15;;;3.42;;
36191;SDS011;22233;42.708;23.360;2022-11-18T05:24:57;8.27;;;4.68;;
36191;SDS011;22233;42.708;23.360;2022-11-18T05:27:23;7.88;;;3.75;;
36191;SDS011;22233;42.708;23.360;2022-11-18T05:29:48;8.90;;;4.10;;
36191;SDS011;22233;42.708;23.360;2022-11-18T05:32:14;9.35;;;3.92;;
36191;SDS011;22233;42.708;23.360;2022-11-18T05:34:40;7.97;;;4.63;;
36191;SDS011;22233;42.708;23.360;2022-11-18T05:37:06;9.50;;;4.60;;
36191;SDS011;22233;42.708;23.360;2022-11-18T05:39:32;10.65;;;4.78;;
36191;SDS011;22233;42.708;23.360;2022-11-18T05:41:58;7.93;;;3.75;;
36191;SDS011;22233;42.708;23.360;2022-11-18T05:44:42;8.27;;;4.57;;
36191;SDS011;22233;42.708;23.360;2022-11-18T05:47:08;7.57;;;4.57;;
36191;SDS011;22233;42.708;23.360;2022-11-18T05:49:34;9.18;;;4.35;;
36191;SDS011;22233;42.708;23.360;2022-11-18T05:51:59;9.82;;;3.72;;
36191;SDS011;22233;42.708;23.360;2022-11-18T05:54:25;12.02;;;5.35;;
36191;SDS011;22233;42.708;23.360;2022-11-18T05:56:51;9.68;;;4.72;;
36191;SDS011;22233;42.708;23.360;2022-11-18T05:59:16;8.95;;;5.45;;
36191;SDS011;22233;42.708;23.360;2022-11-18T06:01:43;15.05;;;6.05;;
36191;SDS011;22233;42.708;23.360;2022-11-18T06:07:13;7.50;;;4.63;;
36191;SDS011;22233;42.708;23.360;2022-11-18T06:09:44;10.95;;;4.82;;
36191;SDS011;22233;42.708;23.360;2022-11-18T06:12:18;8.10;;;4.05;;
36191;SDS011;22233;42.708;23.360;2022-11-18T06:14:47;8.80;;;4.43;;
36191;SDS011;22233;42.708;23.360;2022-11-18T06:17:37;13.30;;;4.10;;
36191;SDS011;22233;42.708;23.360;2022-11-18T06:20:07;9.13;;;3.70;;
36191;SDS011;22233;42.708;23.360;2022-11-18T06:22:33;7.75;;;4.35;;
36191;SDS011;22233;42.708;23.360;2022-11-18T06:24:59;8.70;;;3.65;;
36191;SDS011;22233;42.708;23.360;2022-11-18T06:27:26;7.97;;;4.63;;
36191;SDS011;22233;42.708;23.360;2022-11-18T06:29:52;6.70;;;3.80;;
36191;SDS011;22233;42.708;23.360;2022-11-18T06:32:18;6.90;;;3.03;;
36191;SDS011;22233;42.708;23.360;2022-11-18T06:34:43;11.15;;;3.95;;
36191;SDS011;22233;42.708;23.360;2022-11-18T06:37:12;6.90;;;3.55;;
36191;SDS011;22233;42.708;23.360;2022-11-18T06:39:42;5.32;;;2.95;;
36191;SDS011;22233;42.708;23.360;2022-11-18T06:42:07;4.07;;;2.47;;
36191;SDS011;22233;42.708;23.360;2022-11-18T06:44:33;6.82;;;3.88;;
36191;SDS011;22233;42.708;23.360;2022-11-18T06:46:58;6.38;;;3.30;;
36191;SDS011;22233;42.708;23.360;2022-11-18T06:49:25;8.13;;;3.85;;
36191;SDS011;22233;42.708;23.360;2022-11-18T06:51:52;6.77;;;3.93;;
36191;SDS011;22233;42.708;23.360;2022-11-18T06:54:18;4.63;;;2.75;;
36191;SDS011;22233;42.708;23.360;2022-11-18T06:56:44;6.05;;;2.53;;
36191;SDS011;22233;42.708;23.360;2022-11-18T06:59:09;4.68;;;2.70;;
36191;SDS011;22233;42.708;23.360;2022-11-18T07:01:36;6.55;;;2.70;;
36191;SDS011;22233;42.708;23.360;2022-11-18T07:04:02;8.88;;;2.30;;
36191;SDS011;22233;42.708;23.360;2022-11-18T07:06:29;7.03;;;3.22;;
36191;SDS011;22233;42.708;23.360;2022-11-18T07:08:58;14.23;;;3.95;;
36191;SDS011;22233;42.708;23.360;2022-11-18T07:11:25;13.02;;;6.85;;
36191;SDS011;22233;42.708;23.360;2022-11-18T07:13:51;18.73;;;8.82;;
36191;SDS011;22233;42.708;23.360;2022-11-18T07:16:18;24.35;;;8.27;;
36191;SDS011;22233;42.708;23.360;2022-11-18T07:18:48;23.77;;;8.02;;
36191;SDS011;22233;42.708;23.360;2022-11-18T07:21:15;11.77;;;5.93;;
36191;SDS011;22233;42.708;23.360;2022-11-18T07:23:43;10.57;;;4.82;;
36191;SDS011;22233;42.708;23.360;2022-11-18T07:26:09;6.10;;;3.90;;
36191;SDS011;22233;42.708;23.360;2022-11-18T07:28:35;9.68;;;4.70;;
36191;SDS011;22233;42.708;23.360;2022-11-18T07:31:01;11.35;;;4.90;;
36191;SDS011;22233;42.708;23.360;2022-11-18T07:33:37;10.23;;;4.97;;
36191;SDS011;22233;42.708;23.360;2022-11-18T07:36:04;8.82;;;4.50;;
36191;SDS011;22233;42.708;23.360;2022-11-18T07:38:32;13.73;;;6.03;;
36191;SDS011;22233;42.708;23.360;2022-11-18T07:41:02;12.57;;;5.47;;
36191;SDS011;22233;42.708;23.360;2022-11-18T07:43:32;12.63;;;6.28;;
36191;SDS011;22233;42.708;23.360;2022-11-18T07:46:09;10.07;;;6.45;;
36191;SDS011;22233;42.708;23.360;2022-11-18T07:48:37;12.07;;;6.60;;
36191;SDS011;22233;42.708;23.360;2022-11-18T07:51:03;16.27;;;8.15;;
36191;SDS011;22233;42.708;23.360;2022-11-18T07:53:29;31.27;;;15.10;;
36191;SDS011;22233;42.708;23.360;2022-11-18T07:55:54;21.75;;;11.75;;
36191;SDS011;22233;42.708;23.360;2022-11-18T07:58:20;22.17;;;10.43;;
36191;SDS011;22233;42.708;23.360;2022-11-18T08:00:45;12.93;;;7.35;;
36191;SDS011;22233;42.708;23.360;2022-11-18T08:03:11;15.65;;;7.63;;
36191;SDS011;22233;42.708;23.360;2022-11-18T08:05:36;14.55;;;6.88;;
36191;SDS011;22233;42.708;23.360;2022-11-18T08:08:01;14.82;;;6.40;;
36191;SDS011;22233;42.708;23.360;2022-11-18T08:10:27;15.35;;;7.30;;
36191;SDS011;22233;42.708;23.360;2022-11-18T08:12:52;16.25;;;7.38;;
36191;SDS011;22233;42.708;23.360;2022-11-18T08:15:18;9.70;;;6.45;;
36191;SDS011;22233;42.708;23.360;2022-11-18T08:17:43;14.20;;;7.32;;
36191;SDS011;22233;42.708;23.360;2022-11-18T08:20:09;14.93;;;6.93;;
36191;SDS011;22233;42.708;23.360;2022-11-18T08:22:35;11.25;;;5.45;;
36191;SDS011;22233;42.708;23.360;2022-11-18T08:25:00;12.18;;;6.75;;
36191;SDS011;22233;42.708;23.360;2022-11-18T08:27:25;13.40;;;7.30;;
36191;SDS011;22233;42.708;23.360;2022-11-18T08:29:51;15.30;;;8.25;;
36191;SDS011;22233;42.708;23.360;2022-11-18T08:32:16;13.77;;;7.82;;
36191;SDS011;22233;42.708;23.360;2022-11-18T08:34:41;15.90;;;7.40;;
36191;SDS011;22233;42.708;23.360;2022-11-18T08:37:07;19.92;;;9.55;;
36191;SDS011;22233;42.708;23.360;2022-11-18T08:39:32;13.65;;;7.32;;
36191;SDS011;22233;42.708;23.360;2022-11-18T08:41:58;18.63;;;8.55;;
36191;SDS011;22233;42.708;23.360;2022-11-18T08:44:23;18.70;;;9.10;;
36191;SDS011;22233;42.708;23.360;2022-11-18T08:46:48;18.13;;;8.52;;
36191;SDS011;22233;42.708;23.360;2022-11-18T08:49:14;19.17;;;8.95;;
36191;SDS011;22233;42.708;23.360;2022-11-18T08:51:39;17.38;;;8.65;;
36191;SDS011;22233;42.708;23.360;2022-11-18T08:54:05;17.42;;;9.05;;
36191;SDS011;22233;42.708;23.360;2022-11-18T08:56:30;19.00;;;9.27;;
36191;SDS011;22233;42.708;23.360;2022-11-18T08:58:55;13.63;;;7.53;;
36191;SDS011;22233;42.708;23.360;2022-11-18T09:01:21;17.77;;;8.48;;
36191;SDS011;22233;42.708;23.360;2022-11-18T09:03:47;19.60;;;8.88;;
36191;SDS011;22233;42.708;23.360;2022-11-18T09:06:14;25.98;;;9.68;;
36191;SDS011;22233;42.708;23.360;2022-11-18T09:08:41;18.17;;;9.70;;
36191;SDS011;22233;42.708;23.360;2022-11-18T09:11:08;23.02;;;12.18;;
36191;SDS011;22233;42.708;23.360;2022-11-18T09:13:35;21.30;;;10.98;;
36191;SDS011;22233;42.708;23.360;2022-11-18T09:16:01;22.50;;;11.95;;
36191;SDS011;22233;42.708;23.360;2022-11-18T09:18:27;20.02;;;11.18;;
36191;SDS011;22233;42.708;23.360;2022-11-18T09:20:54;22.10;;;13.15;;
36191;SDS011;22233;42.708;23.360;2022-11-18T09:23:20;20.95;;;11.73;;
36191;SDS011;22233;42.708;23.360;2022-11-18T09:25:46;22.30;;;10.48;;
36191;SDS011;22233;42.708;23.360;2022-11-18T09:28:12;21.42;;;11.93;;
36191;SDS011;22233;42.708;23.360;2022-11-18T09:30:37;22.83;;;11.18;;
36191;SDS011;22233;42.708;23.360;2022-11-18T09:33:02;23.95;;;10.43;;
36191;SDS011;22233;42.708;23.360;2022-11-18T09:35:28;19.33;;;10.40;;
36191;SDS011;22233;42.708;23.360;2022-11-18T09:37:53;20.00;;;10.60;;
36191;SDS011;22233;42.708;23.360;2022-11-18T09:40:19;24.70;;;11.85;;
36191;SDS011;22233;42.708;23.360;2022-11-18T09:43:00;27.00;;;12.40;;
36191;SDS011;22233;42.708;23.360;2022-11-18T09:45:42;22.85;;;11.57;;
36191;SDS011;22233;42.708;23.360;2022-11-18T09:48:18;26.75;;;12.57;;
36191;SDS011;22233;42.708;23.360;2022-11-18T09:51:07;34.92;;;14.38;;
36191;SDS011;22233;42.708;23.360;2022-11-18T09:53:34;29.17;;;13.43;;
36191;SDS011;22233;42.708;23.360;2022-11-18T09:55:59;33.75;;;14.57;;
36191;SDS011;22233;42.708;23.360;2022-11-18T10:00:56;32.15;;;15.30;;
36191;SDS011;22233;42.708;23.360;2022-11-18T10:03:28;30.48;;;15.45;;
36191;SDS011;22233;42.708;23.360;2022-11-18T10:11:03;40.17;;;16.90;;
36191;SDS011;22233;42.708;23.360;2022-11-18T10:24:55;46.33;;;19.65;;
36191;SDS011;22233;42.708;23.360;2022-11-18T10:27:23;41.70;;;18.27;;
36191;SDS011;22233;42.708;23.360;2022-11-18T10:29:57;38.50;;;18.25;;
36191;SDS011;22233;42.708;23.360;2022-11-18T10:32:25;36.92;;;17.20;;
36191;SDS011;22233;42.708;23.360;2022-11-18T10:34:55;38.10;;;15.68;;
36191;SDS011;22233;42.708;23.360;2022-11-18T10:39:55;32.55;;;16.55;;
36191;SDS011;22233;42.708;23.360;2022-11-18T10:42:40;35.47;;;17.33;;
36191;SDS011;22233;42.708;23.360;2022-11-18T10:45:14;37.55;;;17.10;;
36191;SDS011;22233;42.708;23.360;2022-11-18T10:48:05;36.25;;;18.63;;
36191;SDS011;22233;42.708;23.360;2022-11-18T10:53:27;37.30;;;16.77;;
36191;SDS011;22233;42.708;23.360;2022-11-18T10:56:07;30.60;;;15.75;;
36191;SDS011;22233;42.708;23.360;2022-11-18T10:58:42;27.75;;;14.88;;
36191;SDS011;22233;42.708;23.360;2022-11-18T11:06:37;16.88;;;9.52;;
36191;SDS011;22233;42.708;23.360;2022-11-18T11:11:41;14.00;;;9.00;;
36191;SDS011;22233;42.708;23.360;2022-11-18T11:17:10;15.60;;;8.40;;
36191;SDS011;22233;42.708;23.360;2022-11-18T11:22:28;18.02;;;9.23;;
36191;SDS011;22233;42.708;23.360;2022-11-18T11:24:57;16.75;;;9.48;;
36191;SDS011;22233;42.708;23.360;2022-11-18T11:35:35;17.77;;;9.70;;
36191;SDS011;22233;42.708;23.360;2022-11-18T11:40:55;15.77;;;8.95;;
36191;SDS011;22233;42.708;23.360;2022-11-18T11:43:46;15.77;;;9.70;;
36191;SDS011;22233;42.708;23.360;2022-11-18T11:46:52;13.93;;;8.43;;
36191;SDS011;22233;42.708;23.360;2022-11-18T11:49:51;13.52;;;8.55;;
36191;SDS011;22233;42.708;23.360;2022-11-18T11:52:30;15.55;;;9.60;;
36191;SDS011;22233;42.708;23.360;2022-11-18T11:55:09;18.70;;;8.88;;
36191;SDS011;22233;42.708;23.360;2022-11-18T12:00:14;14.27;;;9.02;;
36191;SDS011;22233;42.708;23.360;2022-11-18T12:07:56;15.70;;;8.40;;
36191;SDS011;22233;42.708;23.360;2022-11-18T12:18:41;12.38;;;7.15;;
36191;SDS011;22233;42.708;23.360;2022-11-18T12:26:45;11.48;;;6.85;;
36191;SDS011;22233;42.708;23.360;2022-11-18T12:31:46;11.73;;;6.82;;
36191;SDS011;22233;42.708;23.360;2022-11-18T12:42:35;11.48;;;6.43;;
36191;SDS011;22233;42.708;23.360;2022-11-18T12:50:48;10.75;;;6.20;;
36191;SDS011;22233;42.708;23.360;2022-11-18T12:56:19;12.23;;;7.00;;
36191;SDS011;22233;42.708;23.360;2022-11-18T12:58:50;12.57;;;7.13;;
36191;SDS011;22233;42.708;23.360;2022-11-18T13:01:26;12.70;;;7.22;;
36191;SDS011;22233;42.708;23.360;2022-11-18T13:04:13;13.30;;;6.95;;
36191;SDS011;22233;42.708;23.360;2022-11-18T13:06:41;13.38;;;7.03;;
36191;SDS011;22233;42.708;23.360;2022-11-18T13:09:24;14.20;;;7.05;;
36191;SDS011;22233;42.708;23.360;2022-11-18T13:11:53;12.65;;;7.20;;
36191;SDS011;22233;42.708;23.360;2022-11-18T13:20:29;10.90;;;6.22;;
36191;SDS011;22233;42.708;23.360;2022-11-18T13:23:03;11.13;;;6.90;;
36191;SDS011;22233;42.708;23.360;2022-11-18T13:26:11;16.55;;;7.10;;
36191;SDS011;22233;42.708;23.360;2022-11-18T13:28:58;14.13;;;7.30;;
36191;SDS011;22233;42.708;23.360;2022-11-18T13:34:17;11.10;;;6.93;;
36191;SDS011;22233;42.708;23.360;2022-11-18T13:36:45;11.07;;;6.88;;
36191;SDS011;22233;42.708;23.360;2022-11-18T13:41:56;9.55;;;6.18;;
36191;SDS011;22233;42.708;23.360;2022-11-18T13:44:24;12.90;;;6.47;;
36191;SDS011;22233;42.708;23.360;2022-11-18T13:49:45;13.63;;;5.70;;
36191;SDS011;22233;42.708;23.360;2022-11-18T13:55:00;9.23;;;5.57;;
36191;SDS011;22233;42.708;23.360;2022-11-18T13:57:32;12.32;;;6.70;;
36191;SDS011;22233;42.708;23.360;2022-11-18T14:04:53;9.10;;;4.80;;
36191;SDS011;22233;42.708;23.360;2022-11-18T14:09:56;9.57;;;5.97;;
36191;SDS011;22233;42.708;23.360;2022-11-18T14:12:29;9.32;;;4.95;;
36191;SDS011;22233;42.708;23.360;2022-11-18T14:17:57;7.32;;;4.68;;
36191;SDS011;22233;42.708;23.360;2022-11-18T14:20:24;7.88;;;4.57;;
36191;SDS011;22233;42.708;23.360;2022-11-18T14:25:26;8.30;;;4.68;;
36191;SDS011;22233;42.708;23.360;2022-11-18T14:27:55;7.18;;;4.10;;
36191;SDS011;22233;42.708;23.360;2022-11-18T14:30:41;7.50;;;4.15;;
36191;SDS011;22233;42.708;23.360;2022-11-18T14:33:21;6.45;;;4.07;;
36191;SDS011;22233;42.708;23.360;2022-11-18T14:38:57;8.02;;;3.83;;
36191;SDS011;22233;42.708;23.360;2022-11-18T14:41:09;8.57;;;4.43;;
36191;SDS011;22233;42.708;23.360;2022-11-18T14:43:37;11.15;;;6.43;;
36191;SDS011;22233;42.708;23.360;2022-11-18T14:46:09;13.10;;;8.57;;
36191;SDS011;22233;42.708;23.360;2022-11-18T14:48:41;12.50;;;7.63;;
36191;SDS011;22233;42.708;23.360;2022-11-18T14:51:10;21.45;;;10.95;;
36191;SDS011;22233;42.708;23.360;2022-11-18T14:53:37;12.85;;;7.72;;
36191;SDS011;22233;42.708;23.360;2022-11-18T14:56:02;11.63;;;7.07;;
36191;SDS011;22233;42.708;23.360;2022-11-18T14:58:28;11.05;;;6.03;;
36191;SDS011;22233;42.708;23.360;2022-11-18T15:00:53;7.60;;;5.10;;
36191;SDS011;22233;42.708;23.360;2022-11-18T15:03:19;7.90;;;4.57;;
36191;SDS011;22233;42.708;23.360;2022-11-18T15:05:44;9.40;;;4.78;;
36191;SDS011;22233;42.708;23.360;2022-11-18T15:08:10;7.18;;;4.57;;
36191;SDS011;22233;42.708;23.360;2022-11-18T15:10:35;5.50;;;2.78;;
36191;SDS011;22233;42.708;23.360;2022-11-18T15:13:01;5.10;;;2.33;;
36191;SDS011;22233;42.708;23.360;2022-11-18T15:15:26;3.47;;;2.45;;
36191;SDS011;22233;42.708;23.360;2022-11-18T15:17:51;4.38;;;2.13;;
36191;SDS011;22233;42.708;23.360;2022-11-18T15:20:18;1.95;;;1.40;;
36191;SDS011;22233;42.708;23.360;2022-11-18T15:22:45;1.80;;;1.20;;
36191;SDS011;22233;42.708;23.360;2022-11-18T15:25:11;1.35;;;0.50;;
36191;SDS011;22233;42.708;23.360;2022-11-18T15:27:37;1.13;;;0.70;;
36191;SDS011;22233;42.708;23.360;2022-11-18T15:30:02;1.00;;;0.70;;
36191;SDS011;22233;42.708;23.360;2022-11-18T15:32:28;2.42;;;0.90;;
36191;SDS011;22233;42.708;23.360;2022-11-18T15:34:54;2.28;;;0.80;;
36191;SDS011;22233;42.708;23.360;2022-11-18T15:37:19;1.65;;;0.73;;
36191;SDS011;22233;42.708;23.360;2022-11-18T15:39:45;1.00;;;0.60;;
36191;SDS011;22233;42.708;23.360;2022-11-18T15:42:17;0.80;;;0.60;;
36191;SDS011;22233;42.708;23.360;2022-11-18T15:44:43;2.42;;;0.90;;
36191;SDS011;22233;42.708;23.360;2022-11-18T15:47:09;0.55;;;0.45;;
36191;SDS011;22233;42.708;23.360;2022-11-18T15:49:35;2.20;;;1.27;;
36191;SDS011;22233;42.708;23.360;2022-11-18T15:52:00;1.05;;;0.90;;
36191;SDS011;22233;42.708;23.360;2022-11-18T15:54:26;1.25;;;0.80;;
36191;SDS011;22233;42.708;23.360;2022-11-18T15:56:51;2.28;;;1.08;;
36191;SDS011;22233;42.708;23.360;2022-11-18T15:59:17;1.77;;;1.30;;
36191;SDS011;22233;42.708;23.360;2022-11-18T16:01:46;3.38;;;2.10;;
36191;SDS011;22233;42.708;23.360;2022-11-18T16:04:14;2.95;;;1.90;;
36191;SDS011;22233;42.708;23.360;2022-11-18T16:06:40;4.95;;;1.50;;
36191;SDS011;22233;42.708;23.360;2022-11-18T16:09:09;4.82;;;2.60;;
36191;SDS011;22233;42.708;23.360;2022-11-18T16:11:36;2.42;;;1.83;;
36191;SDS011;22233;42.708;23.360;2022-11-18T16:14:20;3.58;;;2.30;;
36191;SDS011;22233;42.708;23.360;2022-11-18T16:16:47;4.68;;;2.15;;
36191;SDS011;22233;42.708;23.360;2022-11-18T16:19:14;4.57;;;2.30;;
36191;SDS011;22233;42.708;23.360;2022-11-18T16:21:43;9.65;;;4.72;;
36191;SDS011;22233;42.708;23.360;2022-11-18T16:24:15;5.43;;;2.63;;
36191;SDS011;22233;42.708;23.360;2022-11-18T16:26:42;6.63;;;3.85;;
36191;SDS011;22233;42.708;23.360;2022-11-18T16:29:09;8.23;;;4.60;;
36191;SDS011;22233;42.708;23.360;2022-11-18T16:31:35;5.00;;;3.28;;
36191;SDS011;22233;42.708;23.360;2022-11-18T16:34:04;6.60;;;4.28;;
36191;SDS011;22233;42.708;23.360;2022-11-18T16:36:30;9.57;;;5.63;;
36191;SDS011;22233;42.708;23.360;2022-11-18T16:38:55;6.65;;;4.18;;
36191;SDS011;22233;42.708;23.360;2022-11-18T16:41:21;7.05;;;4.93;;
36191;SDS011;22233;42.708;23.360;2022-11-18T16:43:55;7.70;;;4.72;;
36191;SDS011;22233;42.708;23.360;2022-11-18T16:46:22;8.77;;;4.90;;
36191;SDS011;22233;42.708;23.360;2022-11-18T16:48:48;8.82;;;4.97;;
36191;SDS011;22233;42.708;23.360;2022-11-18T16:51:18;5.85;;;4.45;;
36191;SDS011;22233;42.708;23.360;2022-11-18T16:53:49;9.15;;;4.82;;
36191;SDS011;22233;42.708;23.360;2022-11-18T16:56:15;7.70;;;4.90;;
36191;SDS011;22233;42.708;23.360;2022-11-18T16:58:41;5.90;;;4.35;;
36191;SDS011;22233;42.708;23.360;2022-11-18T17:01:10;9.10;;;4.75;;
36191;SDS011;22233;42.708;23.360;2022-11-18T17:03:36;7.05;;;4.07;;